KEJ weather

Kemerovo Airport
Kemerovo, Kemerovo Oblast, Russia

Public forecast

Using degrees Celsius for public forecast. Weather courtesy of forecast.io.

Current aviation weather report (METAR) for Kemerovo Airport

Retrieved 2020/04/04 02:00 UTC (14 minutes ago):

UNEE 040200Z 33002MPS CAVOK 00/M05 Q1033 R23/CLRD60 NOSIG RMK QFE752

Aviation forecast (TAF) for Kemerovo Airport

Retrieved 2020-04-04 03:21 UTC (0 seconds ago):

TAF UNEE 040200Z 0403/0503 34003MPS CAVOK BECMG 0404/0406 05003G08MPS